Time;durP1;ratioP1;P1;durP2;ratioP2;P2;SDS_P1;SDS_P2;PMS_P1;PMS_P2;Temp;Humidity;BMP_temperature;BMP_pressure;BME280_temperature;BME280_humidity;BME280_pressure;Samples;Min_cycle;Max_cycle;Signal;HPM_P1;HPM_P2
2024/01/06 00:03:20;;;;;;;22.08;9.05;;;;;;;;;;10336001;23;20340;-91
2024/01/06 00:07:25;;;;;;;25.85;10.40;;;;;;;;;;10337956;23;20445;-92
2024/01/06 00:11:30;;;;;;;19.33;9.55;;;;;;;;;;10336783;23;20017;-91
2024/01/06 00:15:33;;;;;;;7.45;3.92;;;;;;;;;;10336406;23;20020;-91
2024/01/06 00:19:36;;;;;;;19.33;9.27;;;;;;;;;;10336850;23;20020;-91
2024/01/06 00:23:39;;;;;;;31.67;13.05;;;;;;;;;;10336778;23;20016;-91
2024/01/06 00:27:44;;;;;;;16.08;8.07;;;;;;;;;;10336632;23;20105;-91
2024/01/06 00:31:47;;;;;;;18.98;8.73;;;;;;;;;;10336737;23;20095;-91
2024/01/06 00:35:50;;;;;;;19.52;7.95;;;;;;;;;;10337597;23;20095;-90
2024/01/06 00:39:54;;;;;;;23.60;10.18;;;;;;;;;;10340129;23;20051;-91
2024/01/06 00:43:58;;;;;;;25.30;9.77;;;;;;;;;;10339716;23;20383;-90
2024/01/06 00:48:01;;;;;;;20.42;8.60;;;;;;;;;;10312702;23;20020;-90
2024/01/06 00:52:04;;;;;;;18.27;6.85;;;;;;;;;;10339853;23;20020;-91
2024/01/06 00:56:07;;;;;;;17.55;9.07;;;;;;;;;;10339444;23;20043;-91
2024/01/06 01:00:12;;;;;;;21.67;8.90;;;;;;;;;;10339174;23;20028;-90
2024/01/06 01:04:15;;;;;;;19.02;9.38;;;;;;;;;;10356483;23;20020;-90
2024/01/06 01:08:18;;;;;;;19.90;8.85;;;;;;;;;;10339299;23;20023;-90
2024/01/06 01:12:21;;;;;;;20.33;9.00;;;;;;;;;;10339810;23;20361;-90
2024/01/06 01:16:25;;;;;;;24.02;9.63;;;;;;;;;;10339053;23;20040;-90
2024/01/06 01:20:28;;;;;;;20.23;9.10;;;;;;;;;;10338915;23;20065;-90
2024/01/06 01:24:31;;;;;;;22.92;10.25;;;;;;;;;;10338936;23;20027;-90
2024/01/06 01:28:33;;;;;;;20.35;8.38;;;;;;;;;;10312066;23;20020;-90
2024/01/06 01:32:38;;;;;;;16.80;8.65;;;;;;;;;;10338620;23;20054;-90
2024/01/06 01:36:41;;;;;;;20.05;9.07;;;;;;;;;;10338671;23;20016;-90
2024/01/06 01:40:44;;;;;;;16.15;8.30;;;;;;;;;;10338744;23;20142;-90
2024/01/06 01:44:47;;;;;;;20.42;9.07;;;;;;;;;;10338604;23;20084;-91
2024/01/06 01:48:51;;;;;;;22.98;10.10;;;;;;;;;;10338418;23;20398;-91
2024/01/06 01:52:55;;;;;;;18.83;9.07;;;;;;;;;;10311662;23;20453;-90
2024/01/06 01:56:58;;;;;;;21.30;9.05;;;;;;;;;;10338648;23;20023;-90
2024/01/06 02:01:01;;;;;;;18.83;8.18;;;;;;;;;;10338258;23;20012;-90
2024/01/06 02:05:06;;;;;;;22.40;9.88;;;;;;;;;;10338197;23;20102;-90
2024/01/06 02:09:09;;;;;;;21.10;10.00;;;;;;;;;;10338128;23;20016;-89
2024/01/06 02:13:12;;;;;;;22.30;9.82;;;;;;;;;;10338164;23;20020;-90
2024/01/06 02:17:15;;;;;;;20.65;9.20;;;;;;;;;;10338012;23;20023;-90
2024/01/06 02:21:22;;;;;;;19.00;8.75;;;;;;;;;;10311095;23;20027;-90
2024/01/06 02:25:26;;;;;;;22.20;9.82;;;;;;;;;;10337833;23;20478;-90
2024/01/06 02:29:29;;;;;;;21.25;10.90;;;;;;;;;;10337959;23;20391;-91
2024/01/06 02:33:34;;;;;;;24.42;9.48;;;;;;;;;;10338030;23;20023;-90
2024/01/06 02:37:37;;;;;;;21.70;10.10;;;;;;;;;;10337718;23;20023;-90
2024/01/06 02:41:42;;;;;;;21.95;9.32;;;;;;;;;;10337621;23;20020;-90
2024/01/06 02:45:46;;;;;;;21.90;10.35;;;;;;;;;;10337541;23;20102;-90
2024/01/06 02:49:48;;;;;;;23.60;9.05;;;;;;;;;;10310600;23;20039;-90
2024/01/06 02:53:51;;;;;;;18.52;8.98;;;;;;;;;;10337495;23;20326;-90
2024/01/06 02:57:56;;;;;;;16.70;7.30;;;;;;;;;;10337296;23;20016;-91
2024/01/06 03:01:59;;;;;;;23.23;9.02;;;;;;;;;;10337439;23;20027;-91
2024/01/06 03:06:01;;;;;;;27.83;11.10;;;;;;;;;;10337486;23;20091;-90
2024/01/06 03:10:06;;;;;;;22.50;9.40;;;;;;;;;;10337481;23;20027;-91
2024/01/06 03:14:11;;;;;;;23.40;10.25;;;;;;;;;;10337296;23;20016;-91
2024/01/06 03:18:13;;;;;;;26.35;11.45;;;;;;;;;;10337582;23;20020;-91
2024/01/06 03:22:16;;;;;;;29.42;10.68;;;;;;;;;;10337202;23;20027;-90
2024/01/06 03:26:19;;;;;;;11.18;6.03;;;;;;;;;;10337097;23;20016;-92
2024/01/06 03:30:23;;;;;;;19.63;9.65;;;;;;;;;;10337217;23;20019;-90
2024/01/06 03:34:26;;;;;;;23.83;11.85;;;;;;;;;;10337002;23;20081;-91
2024/01/06 03:38:29;;;;;;;22.77;9.48;;;;;;;;;;10337094;23;20027;-91
2024/01/06 03:42:32;;;;;;;25.30;11.98;;;;;;;;;;10337008;23;20024;-90
2024/01/06 03:46:37;;;;;;;26.02;12.73;;;;;;;;;;10336983;23;20352;-89
2024/01/06 03:50:41;;;;;;;20.27;9.98;;;;;;;;;;10353855;23;20044;-89
2024/01/06 03:54:43;;;;;;;25.50;11.20;;;;;;;;;;10337495;23;20062;-90
2024/01/06 03:58:46;;;;;;;23.63;11.30;;;;;;;;;;10336904;23;20503;-90
2024/01/06 04:02:51;;;;;;;26.17;11.77;;;;;;;;;;10319957;22;20020;-90
2024/01/06 04:06:53;;;;;;;20.30;8.10;;;;;;;;;;10337564;23;20099;-89
2024/01/06 04:10:56;;;;;;;20.38;8.05;;;;;;;;;;10340619;23;20099;-90
2024/01/06 04:14:59;;;;;;;30.73;13.32;;;;;;;;;;10340944;23;20051;-83
2024/01/06 04:19:06;;;;;;;30.65;14.07;;;;;;;;;;10343468;23;20024;-90
2024/01/06 04:23:09;;;;;;;22.67;10.32;;;;;;;;;;10357501;23;20026;-87
2024/01/06 04:27:12;;;;;;;30.92;13.50;;;;;;;;;;10313214;23;20016;-88
2024/01/06 04:31:15;;;;;;;23.25;11.45;;;;;;;;;;10313747;23;20437;-85
2024/01/06 04:35:21;;;;;;;23.50;9.82;;;;;;;;;;10340191;23;20012;-90
2024/01/06 04:39:24;;;;;;;26.92;13.35;;;;;;;;;;10340631;23;20023;-84
2024/01/06 04:43:27;;;;;;;39.00;14.75;;;;;;;;;;10340191;23;20028;-89
2024/01/06 04:47:30;;;;;;;33.70;15.48;;;;;;;;;;10339935;23;20044;-89
2024/01/06 04:51:34;;;;;;;37.65;16.23;;;;;;;;;;10340074;23;20451;-88
2024/01/06 04:55:37;;;;;;;19.60;9.10;;;;;;;;;;10317034;23;20107;-87
2024/01/06 04:59:40;;;;;;;35.28;16.30;;;;;;;;;;10339994;23;20016;-88
2024/01/06 05:03:43;;;;;;;35.97;16.17;;;;;;;;;;10287409;23;20070;-86
2024/01/06 05:07:48;;;;;;;37.70;16.50;;;;;;;;;;10288060;23;20040;-83
2024/01/06 05:11:51;;;;;;;41.90;17.63;;;;;;;;;;10289126;23;20096;-83
2024/01/06 05:15:54;;;;;;;34.60;15.95;;;;;;;;;;10287792;23;20103;-90
2024/01/06 05:19:57;;;;;;;37.28;14.70;;;;;;;;;;10288208;23;20025;-89
2024/01/06 05:24:03;;;;;;;31.10;14.02;;;;;;;;;;10289369;23;20095;-90
2024/01/06 05:28:05;;;;;;;26.90;12.75;;;;;;;;;;10287960;23;20024;-89
2024/01/06 05:32:08;;;;;;;19.02;9.23;;;;;;;;;;10288153;23;20036;-87
2024/01/06 05:36:11;;;;;;;33.17;13.73;;;;;;;;;;10289153;23;20099;-90
2024/01/06 05:40:17;;;;;;;40.78;18.90;;;;;;;;;;10287823;23;20047;-81
2024/01/06 05:44:20;;;;;;;46.75;17.23;;;;;;;;;;10305546;23;20016;-82
2024/01/06 05:48:23;;;;;;;28.38;13.35;;;;;;;;;;10289476;23;20023;-89
2024/01/06 05:52:26;;;;;;;22.73;10.52;;;;;;;;;;10287620;23;20048;-88
2024/01/06 05:56:31;;;;;;;31.95;14.27;;;;;;;;;;10287971;23;20104;-87
2024/01/06 06:00:37;;;;;;;27.70;13.30;;;;;;;;;;10290720;23;20040;-85
2024/01/06 06:04:40;;;;;;;30.42;13.32;;;;;;;;;;10294069;23;20017;-88
2024/01/06 06:08:45;;;;;;;27.55;12.55;;;;;;;;;;10289185;23;20444;-88
2024/01/06 06:12:52;;;;;;;31.85;14.60;;;;;;;;;;10291930;23;20436;-88
2024/01/06 06:16:56;;;;;;;30.85;14.75;;;;;;;;;;10305604;23;20027;-88
2024/01/06 06:20:59;;;;;;;28.70;13.50;;;;;;;;;;10288038;23;20020;-89
2024/01/06 06:25:02;;;;;;;37.15;15.05;;;;;;;;;;10288490;23;20023;-88
2024/01/06 06:29:06;;;;;;;40.92;16.20;;;;;;;;;;10288359;23;20048;-89
2024/01/06 06:33:09;;;;;;;33.42;11.60;;;;;;;;;;10287334;23;20098;-89
2024/01/06 06:37:12;;;;;;;32.70;14.45;;;;;;;;;;10289077;23;20056;-90
2024/01/06 06:45:20;;;;;;;41.30;18.33;;;;;;;;;;10330192;22;20024;-85
2024/01/06 06:49:23;;;;;;;23.60;11.07;;;;;;;;;;10328828;23;20103;-88
2024/01/06 06:53:27;;;;;;;33.35;13.73;;;;;;;;;;10337825;23;20020;-82
2024/01/06 06:57:30;;;;;;;27.85;10.60;;;;;;;;;;10337696;23;20440;-90
2024/01/06 07:01:35;;;;;;;29.48;12.73;;;;;;;;;;10339571;22;20016;-89
2024/01/06 07:05:40;;;;;;;32.72;13.40;;;;;;;;;;10337671;23;20016;-89
2024/01/06 07:09:43;;;;;;;37.42;16.88;;;;;;;;;;10354535;23;20016;-87
2024/01/06 07:13:46;;;;;;;37.38;14.27;;;;;;;;;;10311001;23;20027;-82
2024/01/06 07:17:54;;;;;;;34.13;13.45;;;;;;;;;;10311022;23;20016;-89
2024/01/06 07:21:57;;;;;;;34.08;11.85;;;;;;;;;;10339018;23;20463;-88
2024/01/06 07:26:01;;;;;;;31.23;12.90;;;;;;;;;;10310916;23;20043;-89
2024/01/06 07:30:08;;;;;;;19.23;10.45;;;;;;;;;;10311618;23;20020;-86
2024/01/06 07:34:13;;;;;;;25.70;11.05;;;;;;;;;;10337784;23;20599;-90
2024/01/06 07:38:16;;;;;;;29.67;12.05;;;;;;;;;;10310308;23;20097;-87
2024/01/06 07:42:19;;;;;;;32.50;15.05;;;;;;;;;;10337445;23;20016;-87
2024/01/06 07:46:22;;;;;;;15.05;7.03;;;;;;;;;;10310811;23;20062;-87
2024/01/06 07:50:27;;;;;;;37.40;16.08;;;;;;;;;;10337024;23;20023;-87
2024/01/06 07:54:31;;;;;;;63.20;26.60;;;;;;;;;;10338529;23;20436;-88
2024/01/06 07:58:34;;;;;;;35.42;15.27;;;;;;;;;;10341303;23;20027;-88
2024/01/06 08:08:29;;;;;;;33.22;14.07;;;;;;;;;;10153956;23;20082;-90
2024/01/06 08:12:32;;;;;;;25.08;10.35;;;;;;;;;;10282927;23;20021;-90
2024/01/06 08:16:36;;;;;;;34.88;17.13;;;;;;;;;;10283945;23;20040;-88
2024/01/06 08:20:38;;;;;;;31.17;13.13;;;;;;;;;;10284284;23;20388;-86
2024/01/06 08:24:43;;;;;;;41.40;20.55;;;;;;;;;;10282353;23;20579;-89
2024/01/06 08:28:46;;;;;;;33.92;14.13;;;;;;;;;;10282402;23;20103;-88
2024/01/06 08:32:48;;;;;;;44.78;20.02;;;;;;;;;;10284347;23;20108;-88
2024/01/06 08:36:51;;;;;;;34.47;16.88;;;;;;;;;;10286863;23;20437;-89
2024/01/06 08:40:56;;;;;;;35.00;14.95;;;;;;;;;;10331778;23;20020;-90
2024/01/06 08:44:59;;;;;;;35.75;16.17;;;;;;;;;;10319246;23;20479;-89
2024/01/06 08:49:02;;;;;;;47.38;25.02;;;;;;;;;;10337168;23;20446;-83
2024/01/06 08:53:06;;;;;;;48.78;24.30;;;;;;;;;;10335785;23;20294;-85
2024/01/06 08:57:10;;;;;;;38.17;16.98;;;;;;;;;;10338114;23;20036;-89
2024/01/06 09:01:13;;;;;;;24.00;11.57;;;;;;;;;;10340887;23;20147;-82
2024/01/06 09:05:16;;;;;;;31.77;16.10;;;;;;;;;;10347358;23;20024;-89
2024/01/06 09:09:20;;;;;;;35.92;16.48;;;;;;;;;;10338986;23;20317;-89
2024/01/06 09:13:26;;;;;;;32.00;15.23;;;;;;;;;;10341874;23;20396;-91
2024/01/06 09:17:29;;;;;;;23.02;11.13;;;;;;;;;;10340650;23;20020;-92
2024/01/06 09:21:33;;;;;;;35.28;16.45;;;;;;;;;;10337529;23;20067;-90
2024/01/06 09:25:36;;;;;;;42.22;18.25;;;;;;;;;;10337826;23;20024;-90
2024/01/06 09:29:41;;;;;;;26.75;11.95;;;;;;;;;;10337948;23;20016;-88
2024/01/06 09:33:44;;;;;;;29.70;13.32;;;;;;;;;;10342173;22;20039;-89
2024/01/06 09:37:48;;;;;;;17.88;8.40;;;;;;;;;;10339656;23;20439;-84
2024/01/06 09:41:51;;;;;;;31.92;14.85;;;;;;;;;;10339763;23;20023;-89
2024/01/06 09:46:03;;;;;;;17.73;9.60;;;;;;;;;;10339334;23;20027;-82
2024/01/06 09:50:09;;;;;;;;;;;;;;;;;;10358719;23;20047;-83
2024/01/06 09:54:14;;;;;;;27.90;12.40;;;;;;;;;;10340211;23;19962;-84
2024/01/06 09:58:17;;;;;;;43.15;18.00;;;;;;;;;;10358694;23;20040;-88
2024/01/06 10:02:24;;;;;;;33.10;14.77;;;;;;;;;;10315939;23;20031;-89
2024/01/06 10:06:28;;;;;;;40.47;18.13;;;;;;;;;;10358390;23;20043;-85
2024/01/06 10:10:31;;;;;;;37.83;17.75;;;;;;;;;;10342712;23;20024;-93
2024/01/06 10:14:35;;;;;;;17.00;10.85;;;;;;;;;;10319736;23;20048;-89
2024/01/06 10:18:40;;;;;;;32.33;15.57;;;;;;;;;;10339541;23;20016;-90
2024/01/06 10:22:44;;;;;;;27.80;12.82;;;;;;;;;;10312893;23;20020;-90
2024/01/06 10:26:47;;;;;;;17.80;10.48;;;;;;;;;;10339159;23;20100;-83
2024/01/06 10:30:53;;;;;;;40.67;16.83;;;;;;;;;;10339148;23;20050;-88
2024/01/06 10:35:03;;;;;;;12.82;6.40;;;;;;;;;;10312837;23;20024;-90
2024/01/06 10:39:07;;;;;;;17.15;8.98;;;;;;;;;;10314577;23;20072;-91
2024/01/06 10:48:53;;;;;;;22.67;11.63;;;;;;;;;;10355525;22;20030;-91
2024/01/06 10:52:58;;;;;;;43.03;19.88;;;;;;;;;;10392704;22;20047;-89
2024/01/06 10:57:03;;;;;;;47.65;24.30;;;;;;;;;;10389105;22;20142;-89
2024/01/06 11:01:06;;;;;;;35.50;18.25;;;;;;;;;;10391967;22;20043;-91
2024/01/06 11:05:11;;;;;;;14.73;8.02;;;;;;;;;;10375475;22;20020;-89
2024/01/06 11:09:23;;;;;;;29.27;15.38;;;;;;;;;;10412426;22;20046;-91
2024/01/06 11:13:27;;;;;;;41.40;17.23;;;;;;;;;;10363884;22;20747;-84
2024/01/06 11:17:53;;;;;;;35.75;15.65;;;;;;;;;;10390025;22;20035;-88
2024/01/06 11:21:56;;;;;;;31.80;15.48;;;;;;;;;;10406744;22;20016;-91
2024/01/06 11:26:01;;;;;;;41.05;15.05;;;;;;;;;;10362971;22;20463;-89
2024/01/06 11:30:06;;;;;;;48.03;16.77;;;;;;;;;;10392433;22;20395;-81
2024/01/06 11:34:18;;;;;;;57.72;19.83;;;;;;;;;;10405796;22;20570;-90
2024/01/06 11:38:22;;;;;;;49.72;18.90;;;;;;;;;;10390947;22;20024;-83
2024/01/06 11:42:35;;;;;;;41.05;17.48;;;;;;;;;;10362663;22;20020;-83
2024/01/06 11:46:38;;;;;;;41.95;18.02;;;;;;;;;;10362577;22;20357;-82
2024/01/06 12:01:39;;;;;;;106.78;41.35;;;;;;;;;;10336032;23;20322;-92
2024/01/06 12:05:41;;;;;;;55.50;24.67;;;;;;;;;;10339817;23;20016;-82
2024/01/06 12:09:44;;;;;;;41.70;20.77;;;;;;;;;;10340729;23;20484;-90
2024/01/06 12:13:47;;;;;;;30.92;12.23;;;;;;;;;;10315444;23;20503;-90
2024/01/06 12:17:52;;;;;;;50.22;21.83;;;;;;;;;;10346633;23;20310;-90
2024/01/06 12:21:55;;;;;;;49.70;21.40;;;;;;;;;;10319285;23;20027;-90
2024/01/06 12:25:58;;;;;;;22.27;13.13;;;;;;;;;;10345260;23;20027;-91
2024/01/06 12:30:02;;;;;;;45.70;21.73;;;;;;;;;;10313720;23;20020;-88
2024/01/06 12:34:07;;;;;;;45.47;19.27;;;;;;;;;;10348425;23;20371;-83
2024/01/06 12:38:11;;;;;;;38.75;17.88;;;;;;;;;;10353921;23;20027;-90
2024/01/06 12:42:16;;;;;;;48.05;21.55;;;;;;;;;;10324776;23;20091;-86
2024/01/06 12:46:19;;;;;;;21.50;11.25;;;;;;;;;;10366486;23;20023;-82
2024/01/06 12:50:23;;;;;;;38.95;16.75;;;;;;;;;;10315329;23;20412;-93
2024/01/06 12:54:26;;;;;;;34.75;17.42;;;;;;;;;;10343727;23;20027;-94
2024/01/06 12:58:32;;;;;;;43.58;19.95;;;;;;;;;;10343767;23;20040;-88
2024/01/06 13:02:35;;;;;;;30.35;13.48;;;;;;;;;;10361011;23;20050;-82
2024/01/06 13:06:40;;;;;;;40.03;18.52;;;;;;;;;;10344462;23;20038;-94
2024/01/06 13:10:45;;;;;;;32.63;13.40;;;;;;;;;;10291775;23;20023;-93
2024/01/06 13:14:49;;;;;;;48.58;20.63;;;;;;;;;;10360841;23;20036;-94
2024/01/06 13:18:53;;;;;;;29.10;13.00;;;;;;;;;;10324122;23;20016;-94
2024/01/06 13:22:59;;;;;;;29.38;12.63;;;;;;;;;;10366349;23;20016;-86
2024/01/06 13:27:04;;;;;;;166.45;55.65;;;;;;;;;;10342713;23;20044;-88
2024/01/06 13:31:07;;;;;;;46.67;18.52;;;;;;;;;;10349466;23;20026;-95
2024/01/06 13:35:11;;;;;;;28.38;12.73;;;;;;;;;;10319867;23;20383;-95
2024/01/06 13:39:20;;;;;;;59.42;20.60;;;;;;;;;;10344866;23;20068;-92
2024/01/06 13:43:23;;;;;;;175.93;47.72;;;;;;;;;;10316716;23;20012;-94
2024/01/06 13:57:56;;;;;;;67.85;21.77;;;;;;;;;;10109113;23;20057;-92
2024/01/06 14:02:03;;;;;;;53.00;20.83;;;;;;;;;;10295843;23;20028;-91
2024/01/06 14:06:07;;;;;;;29.05;9.18;;;;;;;;;;10359901;23;20016;-87
2024/01/06 14:11:05;;;;;;;90.43;28.17;;;;;;;;;;10289342;23;20016;-94
2024/01/06 14:15:09;;;;;;;44.97;19.88;;;;;;;;;;10347832;23;20020;-91
2024/01/06 14:19:18;;;;;;;58.47;22.08;;;;;;;;;;10341554;23;20135;-87
2024/01/06 14:32:46;;;;;;;17.38;8.73;;;;;;;;;;10341367;23;20035;-90
2024/01/06 14:36:50;;;;;;;27.42;10.95;;;;;;;;;;10357717;23;20375;-83
2024/01/06 14:40:54;;;;;;;66.07;19.55;;;;;;;;;;10341378;23;20020;-91
2024/01/06 14:44:58;;;;;;;50.85;17.38;;;;;;;;;;10344793;23;20020;-88
2024/01/06 14:49:04;;;;;;;20.98;11.57;;;;;;;;;;10315946;23;20020;-91
2024/01/06 14:53:10;;;;;;;15.10;6.20;;;;;;;;;;10360160;23;20143;-92
2024/01/06 14:57:16;;;;;;;51.33;19.17;;;;;;;;;;10368687;23;20071;-86
2024/01/06 15:06:39;;;;;;;31.90;13.18;;;;;;;;;;10288825;23;20518;-90
2024/01/06 15:16:16;;;;;;;30.55;14.23;;;;;;;;;;10194253;23;20049;-85
2024/01/06 15:20:23;;;;;;;15.90;8.23;;;;;;;;;;10325156;23;20474;-91
2024/01/06 15:24:28;;;;;;;47.72;20.13;;;;;;;;;;10382735;22;20004;-86
2024/01/06 15:28:30;;;;;;;34.00;15.52;;;;;;;;;;10357673;22;20018;-85
2024/01/06 15:32:35;;;;;;;79.30;18.80;;;;;;;;;;10332605;23;20016;-87
2024/01/06 15:36:39;;;;;;;61.38;18.08;;;;;;;;;;10359878;23;20039;-91
2024/01/06 15:40:42;;;;;;;55.55;18.17;;;;;;;;;;10342953;23;20024;-91
2024/01/06 15:44:45;;;;;;;22.80;12.40;;;;;;;;;;10358782;23;20020;-89
2024/01/06 15:48:49;;;;;;;24.45;11.60;;;;;;;;;;10343164;23;20071;-91
2024/01/06 15:52:52;;;;;;;22.45;9.18;;;;;;;;;;10341255;23;20016;-90
2024/01/06 15:56:55;;;;;;;35.22;17.50;;;;;;;;;;10341906;23;20023;-92
2024/01/06 16:00:58;;;;;;;149.82;41.42;;;;;;;;;;10313599;23;20024;-89
2024/01/06 16:05:04;;;;;;;36.92;16.05;;;;;;;;;;10315745;23;20016;-91
2024/01/06 16:09:10;;;;;;;39.75;16.42;;;;;;;;;;10318027;23;20024;-84
2024/01/06 16:13:13;;;;;;;28.05;10.43;;;;;;;;;;10316100;23;20027;-92
2024/01/06 16:43:47;;;;;;;65.40;22.92;;;;;;;;;;10120714;23;20033;-90
2024/01/06 16:47:50;;;;;;;16.38;8.60;;;;;;;;;;10142108;23;20054;-90
2024/01/06 16:51:53;;;;;;;49.88;19.00;;;;;;;;;;10294180;23;20035;-93
2024/01/06 17:05:20;;;;;;;86.35;28.08;;;;;;;;;;10321291;23;20024;-94
2024/01/06 17:09:27;;;;;;;56.58;20.30;;;;;;;;;;10343650;23;20310;-89
2024/01/06 17:13:33;;;;;;;31.48;12.63;;;;;;;;;;10348552;23;20027;-93
2024/01/06 17:17:59;;;;;;;49.45;19.13;;;;;;;;;;10349999;23;20095;-91
2024/01/06 17:22:39;;;;;;;33.20;11.63;;;;;;;;;;10346967;23;20026;-93
2024/01/06 17:26:46;;;;;;;64.93;22.98;;;;;;;;;;10343551;23;20020;-88
2024/01/06 17:30:48;;;;;;;26.70;13.63;;;;;;;;;;10360063;23;20452;-89
2024/01/06 18:15:55;;;;;;;31.92;14.63;;;;;;;;;;10343108;23;20081;-94
2024/01/06 18:20:01;;;;;;;38.45;17.70;;;;;;;;;;10351014;23;20024;-93
2024/01/06 18:34:32;;;;;;;52.83;27.70;;;;;;;;;;10306121;23;20031;-94
2024/01/06 18:38:36;;;;;;;28.73;13.23;;;;;;;;;;10300954;23;20032;-95
2024/01/06 18:42:41;;;;;;;32.05;13.60;;;;;;;;;;10301223;23;20321;-93
2024/01/06 18:46:47;;;;;;;37.45;14.02;;;;;;;;;;10335941;23;20016;-94
2024/01/06 18:50:50;;;;;;;206.27;90.70;;;;;;;;;;10344505;23;20452;-91
2024/01/06 18:54:57;;;;;;;40.13;16.08;;;;;;;;;;10345180;23;20026;-93
2024/01/06 18:59:04;;;;;;;18.75;8.23;;;;;;;;;;10346025;23;20020;-90
2024/01/06 19:34:26;;;;;;;119.93;29.63;;;;;;;;;;9948028;23;20027;-90
2024/01/06 19:38:29;;;;;;;23.75;9.75;;;;;;;;;;9969436;23;20050;-89
2024/01/06 19:42:33;;;;;;;49.75;15.55;;;;;;;;;;9993937;23;20047;-90
2024/01/06 19:46:36;;;;;;;77.28;18.60;;;;;;;;;;9970255;23;20019;-90
2024/01/06 19:50:40;;;;;;;59.45;22.67;;;;;;;;;;9971904;23;20067;-89
2024/01/06 19:54:43;;;;;;;141.82;30.63;;;;;;;;;;10002576;23;20479;-87
2024/01/06 19:58:46;;;;;;;60.20;17.02;;;;;;;;;;10106549;23;20382;-88
2024/01/06 20:08:22;;;;;;;24.52;11.40;;;;;;;;;;10346989;22;20043;-90
2024/01/06 20:12:25;;;;;;;78.78;14.77;;;;;;;;;;10395468;22;20016;-88
2024/01/06 20:16:30;;;;;;;29.83;12.05;;;;;;;;;;10349707;22;20027;-88
2024/01/06 20:20:40;;;;;;;15.73;7.07;;;;;;;;;;10303231;23;20022;-90
2024/01/06 20:24:45;;;;;;;40.53;12.73;;;;;;;;;;10311101;23;20099;-89
2024/01/06 20:28:48;;;;;;;50.15;16.80;;;;;;;;;;10338202;23;20026;-89
2024/01/06 20:32:50;;;;;;;39.45;11.60;;;;;;;;;;10311068;23;20058;-89
2024/01/06 20:36:54;;;;;;;21.75;9.30;;;;;;;;;;10338619;23;20020;-88
2024/01/06 20:40:58;;;;;;;38.83;13.85;;;;;;;;;;10337698;23;20063;-84
2024/01/06 20:45:02;;;;;;;23.17;9.60;;;;;;;;;;10337983;23;20020;-83
2024/01/06 20:49:05;;;;;;;38.90;11.68;;;;;;;;;;10337507;23;20023;-85
2024/01/06 20:53:14;;;;;;;43.53;14.50;;;;;;;;;;10316045;23;20039;-86
2024/01/06 20:57:19;;;;;;;36.17;10.20;;;;;;;;;;10342569;23;20016;-87
2024/01/06 21:01:23;;;;;;;38.45;11.00;;;;;;;;;;10315615;23;20024;-88
2024/01/06 21:05:26;;;;;;;71.18;21.42;;;;;;;;;;10313651;23;20488;-83
2024/01/06 21:09:30;;;;;;;37.42;12.65;;;;;;;;;;10340391;23;20150;-88
2024/01/06 21:13:35;;;;;;;41.13;12.10;;;;;;;;;;10340393;23;20016;-88
2024/01/06 21:17:39;;;;;;;48.35;16.15;;;;;;;;;;10313418;23;20024;-89
2024/01/06 21:21:44;;;;;;;24.27;8.23;;;;;;;;;;10340215;23;20135;-86
2024/01/06 21:25:51;;;;;;;21.30;8.55;;;;;;;;;;10341595;23;20532;-89
2024/01/06 21:29:55;;;;;;;39.22;10.90;;;;;;;;;;10313113;23;20412;-90
2024/01/06 21:33:58;;;;;;;16.35;7.03;;;;;;;;;;10339903;23;20070;-90
2024/01/06 21:38:03;;;;;;;27.73;8.68;;;;;;;;;;10313577;23;20340;-89
2024/01/06 21:42:06;;;;;;;70.85;22.63;;;;;;;;;;10341415;23;20019;-88
2024/01/06 21:46:11;;;;;;;29.42;10.43;;;;;;;;;;10346001;23;20027;-90
2024/01/06 21:50:14;;;;;;;30.50;10.60;;;;;;;;;;10345192;23;20028;-89
2024/01/06 21:54:17;;;;;;;33.38;12.45;;;;;;;;;;10339888;23;20016;-83
2024/01/06 21:58:20;;;;;;;40.90;12.13;;;;;;;;;;10312387;23;20043;-85
2024/01/06 22:02:25;;;;;;;21.15;7.55;;;;;;;;;;10338816;23;20017;-88
2024/01/06 22:06:29;;;;;;;17.67;7.57;;;;;;;;;;10339056;23;20020;-87
2024/01/06 22:10:33;;;;;;;29.67;10.07;;;;;;;;;;10338889;23;20020;-86
2024/01/06 22:14:37;;;;;;;18.33;7.82;;;;;;;;;;10338822;23;20020;-87
2024/01/06 22:18:45;;;;;;;18.80;6.82;;;;;;;;;;10311331;23;20032;-83
2024/01/06 22:22:48;;;;;;;16.60;6.85;;;;;;;;;;10313712;23;20441;-86
2024/01/06 22:26:51;;;;;;;19.10;7.28;;;;;;;;;;10338587;23;20650;-88
2024/01/06 22:30:54;;;;;;;12.20;5.18;;;;;;;;;;10312466;23;20040;-83
2024/01/06 22:34:59;;;;;;;28.85;10.55;;;;;;;;;;10312293;23;20016;-85
2024/01/06 22:39:03;;;;;;;13.25;6.30;;;;;;;;;;10311914;23;20016;-88
2024/01/06 22:43:06;;;;;;;15.82;6.60;;;;;;;;;;10338306;23;20366;-87
2024/01/06 22:47:09;;;;;;;14.48;6.38;;;;;;;;;;10311488;23;20432;-82
2024/01/06 22:51:17;;;;;;;12.70;5.28;;;;;;;;;;10311703;23;20342;-87
2024/01/06 22:55:21;;;;;;;41.28;12.52;;;;;;;;;;10312025;23;20221;-86
2024/01/06 22:59:24;;;;;;;10.63;5.32;;;;;;;;;;10315228;23;20016;-84
2024/01/06 23:03:27;;;;;;;17.25;7.60;;;;;;;;;;10310969;23;20395;-84
2024/01/06 23:07:31;;;;;;;15.25;5.78;;;;;;;;;;10311467;23;20020;-88
2024/01/06 23:11:34;;;;;;;9.40;4.50;;;;;;;;;;10310470;23;20032;-89
2024/01/06 23:15:37;;;;;;;13.00;5.57;;;;;;;;;;10337671;23;20024;-88
2024/01/06 23:19:44;;;;;;;16.95;7.85;;;;;;;;;;10311130;23;20095;-89
2024/01/06 23:23:49;;;;;;;11.48;5.25;;;;;;;;;;10311250;23;20023;-89
2024/01/06 23:27:52;;;;;;;7.97;4.30;;;;;;;;;;10311165;23;20020;-88
2024/01/06 23:31:55;;;;;;;16.50;6.00;;;;;;;;;;10267800;23;20033;-84
2024/01/06 23:35:58;;;;;;;18.77;4.72;;;;;;;;;;10287885;23;20048;-88
2024/01/06 23:40:03;;;;;;;8.73;4.07;;;;;;;;;;10289136;23;20044;-89
2024/01/06 23:44:06;;;;;;;7.60;4.15;;;;;;;;;;10287768;23;20433;-89
2024/01/06 23:48:09;;;;;;;8.00;4.25;;;;;;;;;;10288722;23;20021;-82
2024/01/06 23:57:57;;;;;;;13.43;4.63;;;;;;;;;;10337799;23;20095;-85
